Time;durP1;ratioP1;P1;durP2;ratioP2;P2;SDS_P1;SDS_P2;PMS_P1;PMS_P2;Temp;Humidity;BMP_temperature;BMP_pressure;BME280_temperature;BME280_humidity;BME280_pressure;Samples;Min_cycle;Max_cycle;Signal;HPM_P1;HPM_P2
2022/07/09 00:01:14;;;;;;;3.40;3.05;;;19.60;56.30;;;;;;5035490;28;20041;-61
2022/07/09 00:03:48;;;;;;;4.30;2.95;;;19.50;56.40;;;;;;5043605;28;20030;-61
2022/07/09 00:06:15;;;;;;;3.35;2.60;;;19.50;56.60;;;;;;5039825;28;20083;-60
2022/07/09 00:08:41;;;;;;;2.60;2.40;;;19.50;56.50;;;;;;5043569;28;20091;-61
2022/07/09 00:11:10;;;;;;;3.25;2.53;;;19.50;56.40;;;;;;5051405;28;20044;-61
2022/07/09 00:13:37;;;;;;;3.50;2.72;;;19.40;56.20;;;;;;5031557;28;20103;-61
2022/07/09 00:16:06;;;;;;;2.92;2.72;;;19.40;56.40;;;;;;5040655;28;20061;-61
2022/07/09 00:18:33;;;;;;;4.25;2.83;;;19.40;56.50;;;;;;5038043;28;20042;-61
2022/07/09 00:21:08;;;;;;;3.50;2.88;;;19.40;56.50;;;;;;5033493;28;20037;-61
2022/07/09 00:23:34;;;;;;;2.97;2.78;;;19.30;56.90;;;;;;5031904;28;20041;-61
2022/07/09 00:26:02;;;;;;;2.83;2.63;;;19.30;56.60;;;;;;5040725;28;20041;-61
2022/07/09 00:28:29;;;;;;;3.35;2.40;;;19.30;56.60;;;;;;5045447;28;20107;-61
2022/07/09 00:31:01;;;;;;;4.20;2.63;;;19.30;56.70;;;;;;5043827;28;20038;-61
2022/07/09 00:33:28;;;;;;;2.88;2.67;;;19.30;56.90;;;;;;5038898;28;20045;-61
2022/07/09 00:35:54;;;;;;;3.55;3.25;;;19.20;56.70;;;;;;5039109;28;20510;-61
2022/07/09 00:38:23;;;;;;;2.78;2.53;;;19.20;56.80;;;;;;5014025;28;20045;-61
2022/07/09 00:40:55;;;;;;;2.80;2.60;;;19.20;56.80;;;;;;5030509;28;20038;-61
2022/07/09 00:43:25;;;;;;;3.63;2.95;;;19.10;56.80;;;;;;5034787;28;20041;-61
2022/07/09 00:45:51;;;;;;;3.38;2.97;;;19.00;56.80;;;;;;5042527;28;20059;-60
2022/07/09 00:48:20;;;;;;;3.53;3.03;;;19.00;57.00;;;;;;5051684;28;20075;-62
2022/07/09 00:50:47;;;;;;;4.05;3.65;;;19.00;57.00;;;;;;5036012;28;20412;-61
2022/07/09 00:53:21;;;;;;;2.90;2.70;;;19.00;57.10;;;;;;5043442;28;20037;-60
2022/07/09 00:55:56;;;;;;;3.25;3.00;;;19.00;57.20;;;;;;5033747;28;20090;-61
2022/07/09 00:58:24;;;;;;;4.00;3.25;;;18.90;57.00;;;;;;5024276;28;20125;-61
2022/07/09 01:00:54;;;;;;;4.10;3.25;;;18.90;57.00;;;;;;5033705;28;20494;-61
2022/07/09 01:03:23;;;;;;;3.17;2.90;;;18.90;57.10;;;;;;5037872;28;20045;-61
2022/07/09 01:05:50;;;;;;;3.15;2.95;;;18.90;57.20;;;;;;5047410;28;20053;-61
2022/07/09 01:08:19;;;;;;;5.93;4.68;;;18.80;57.30;;;;;;5051490;28;20041;-61
2022/07/09 01:10:48;;;;;;;4.07;3.08;;;18.80;57.30;;;;;;5033827;28;20091;-61
2022/07/09 01:13:16;;;;;;;3.00;2.80;;;18.80;57.50;;;;;;5041640;28;20034;-61
2022/07/09 01:15:43;;;;;;;4.57;4.25;;;18.80;57.60;;;;;;5045665;28;20083;-61
2022/07/09 01:18:11;;;;;;;4.53;3.00;;;18.80;57.50;;;;;;5042819;28;20068;-60
2022/07/09 01:20:40;;;;;;;3.47;3.08;;;18.70;57.50;;;;;;5034880;28;20091;-61
2022/07/09 01:23:07;;;;;;;3.80;3.50;;;18.70;57.50;;;;;;5040440;28;20095;-61
2022/07/09 01:25:39;;;;;;;3.58;3.25;;;18.70;57.70;;;;;;5051514;28;20047;-61
2022/07/09 01:28:11;;;;;;;3.53;3.30;;;18.70;58.10;;;;;;5036911;28;20042;-61
2022/07/09 01:30:41;;;;;;;3.17;2.90;;;18.70;58.00;;;;;;5045150;28;20037;-61
2022/07/09 01:33:08;;;;;;;3.35;3.08;;;18.70;58.10;;;;;;5030673;28;20158;-61
2022/07/09 01:35:34;;;;;;;3.35;3.05;;;18.60;57.90;;;;;;5028094;28;20099;-61
2022/07/09 01:38:03;;;;;;;4.35;3.00;;;18.60;58.00;;;;;;5029713;28;20096;-60
2022/07/09 01:40:32;;;;;;;3.10;2.80;;;18.60;58.00;;;;;;5037748;28;20063;-61
2022/07/09 01:42:59;;;;;;;3.47;3.17;;;18.60;58.00;;;;;;5042629;28;20413;-61
2022/07/09 01:45:28;;;;;;;4.72;3.78;;;18.60;58.10;;;;;;5033402;28;20052;-61
2022/07/09 01:47:55;;;;;;;3.42;2.97;;;18.50;58.30;;;;;;5036033;28;20045;-61
2022/07/09 01:50:23;;;;;;;4.82;3.30;;;18.50;58.20;;;;;;5042033;28;20124;-61
2022/07/09 01:52:50;;;;;;;3.17;2.95;;;18.50;58.20;;;;;;5046702;28;20044;-61
2022/07/09 01:55:24;;;;;;;3.70;3.22;;;18.50;58.30;;;;;;5035525;28;20547;-61
2022/07/09 01:57:51;;;;;;;4.53;3.50;;;18.50;58.20;;;;;;5032029;28;20407;-61
2022/07/09 02:00:19;;;;;;;3.60;3.30;;;18.50;58.30;;;;;;5042552;28;20119;-61
2022/07/09 02:02:45;;;;;;;4.43;3.30;;;18.50;58.40;;;;;;5050318;28;20040;-60
2022/07/09 02:05:18;;;;;;;3.33;3.00;;;18.40;58.40;;;;;;5034804;28;20095;-60
2022/07/09 02:07:50;;;;;;;4.97;3.50;;;18.40;58.50;;;;;;5042142;28;20037;-61
2022/07/09 02:10:17;;;;;;;3.92;3.45;;;18.40;58.30;;;;;;5050606;28;20110;-61
2022/07/09 02:12:46;;;;;;;3.40;3.20;;;18.40;58.20;;;;;;5050172;28;20037;-60
2022/07/09 02:15:15;;;;;;;4.85;3.15;;;18.40;58.20;;;;;;5029463;28;20127;-60
2022/07/09 02:17:42;;;;;;;3.45;3.15;;;18.30;58.20;;;;;;5036294;28;20033;-61
2022/07/09 02:20:11;;;;;;;3.72;3.33;;;18.30;58.30;;;;;;5030744;28;20041;-61
2022/07/09 02:22:38;;;;;;;3.75;3.45;;;18.30;58.50;;;;;;5032483;28;20428;-61
2022/07/09 02:25:13;;;;;;;5.50;4.05;;;18.20;58.40;;;;;;5048052;28;20672;-60
2022/07/09 02:27:39;;;;;;;3.90;3.45;;;18.20;58.40;;;;;;5038052;28;20100;-61
2022/07/09 02:30:06;;;;;;;3.55;3.33;;;18.20;58.50;;;;;;5045400;28;20033;-61
2022/07/09 02:32:33;;;;;;;3.20;2.95;;;18.20;58.70;;;;;;5043752;28;20051;-62
2022/07/09 02:35:00;;;;;;;3.80;3.50;;;18.30;58.80;;;;;;5033422;28;20064;-61
2022/07/09 02:37:26;;;;;;;4.15;3.70;;;18.20;58.70;;;;;;5040056;28;20468;-61
2022/07/09 02:39:53;;;;;;;3.72;3.42;;;18.10;58.80;;;;;;5046612;28;20048;-61
2022/07/09 02:42:22;;;;;;;4.43;3.38;;;18.10;58.80;;;;;;5048280;28;20492;-60
2022/07/09 02:44:51;;;;;;;3.72;3.42;;;18.10;59.10;;;;;;5034073;28;20049;-61
2022/07/09 02:47:21;;;;;;;4.28;3.88;;;18.00;58.60;;;;;;5037311;28;20033;-61
2022/07/09 02:49:48;;;;;;;5.07;3.58;;;18.00;58.50;;;;;;5030173;28;20517;-61
2022/07/09 02:52:19;;;;;;;3.05;2.78;;;18.00;58.60;;;;;;5020370;28;20551;-61
2022/07/09 02:54:51;;;;;;;4.93;3.58;;;18.00;58.70;;;;;;5028746;28;20088;-61
2022/07/09 02:57:18;;;;;;;4.55;4.00;;;18.00;58.60;;;;;;5040685;28;20037;-60
2022/07/09 02:59:47;;;;;;;4.28;3.80;;;18.00;58.70;;;;;;5047835;28;20102;-61
2022/07/09 03:02:19;;;;;;;4.22;3.83;;;17.90;58.80;;;;;;5039141;28;20041;-61
2022/07/09 03:04:46;;;;;;;3.90;3.60;;;17.90;58.90;;;;;;5041277;28;20404;-61
2022/07/09 03:07:14;;;;;;;4.60;3.83;;;17.90;58.70;;;;;;5030650;28;20057;-61
2022/07/09 03:09:40;;;;;;;4.35;3.95;;;17.90;58.90;;;;;;5033249;28;20034;-61
2022/07/09 03:12:07;;;;;;;4.38;3.97;;;17.80;58.90;;;;;;5032026;28;20530;-61
2022/07/09 03:14:36;;;;;;;4.05;3.25;;;17.80;59.00;;;;;;5047403;28;20072;-61
2022/07/09 03:17:03;;;;;;;4.10;3.80;;;17.80;59.00;;;;;;5051554;28;20036;-61
2022/07/09 03:19:37;;;;;;;4.20;3.53;;;17.80;59.00;;;;;;5038071;28;20125;-61
2022/07/09 03:22:06;;;;;;;4.03;3.67;;;17.80;59.00;;;;;;5044112;28;20033;-61
2022/07/09 03:24:33;;;;;;;4.82;3.70;;;17.70;58.90;;;;;;5047778;28;20114;-61
2022/07/09 03:27:02;;;;;;;5.00;3.90;;;17.70;58.90;;;;;;5030900;28;20500;-60
2022/07/09 03:29:31;;;;;;;3.97;3.42;;;17.70;58.90;;;;;;5039313;28;20102;-61
2022/07/09 03:31:57;;;;;;;4.30;3.90;;;17.60;58.80;;;;;;5034786;28;20073;-61
2022/07/09 03:34:30;;;;;;;5.45;4.35;;;17.60;59.00;;;;;;5045934;28;20041;-61
2022/07/09 03:36:57;;;;;;;5.60;4.20;;;17.60;59.10;;;;;;5052924;28;20048;-61
2022/07/09 03:39:24;;;;;;;4.60;4.13;;;17.60;59.20;;;;;;5036678;28;20045;-60
2022/07/09 03:41:53;;;;;;;4.80;4.13;;;17.60;59.30;;;;;;5042351;28;20090;-61
2022/07/09 03:44:23;;;;;;;5.15;4.72;;;17.50;59.30;;;;;;5042602;28;20125;-61
2022/07/09 03:46:49;;;;;;;4.50;4.10;;;17.50;59.30;;;;;;5033457;28;20715;-61
2022/07/09 03:49:18;;;;;;;4.70;4.13;;;17.50;59.40;;;;;;5032297;28;20045;-61
2022/07/09 03:51:50;;;;;;;5.43;4.43;;;17.50;59.60;;;;;;5025554;28;20069;-61
2022/07/09 03:54:39;;;;;;;4.82;4.43;;;17.50;59.70;;;;;;5042364;28;20076;-61
2022/07/09 03:57:06;;;;;;;5.10;4.50;;;17.50;59.60;;;;;;5047471;28;20041;-61
2022/07/09 03:59:35;;;;;;;5.10;4.60;;;17.50;59.80;;;;;;5038558;28;20040;-60
2022/07/09 04:02:05;;;;;;;4.63;4.22;;;17.50;59.90;;;;;;5044289;28;20094;-61
2022/07/09 04:04:43;;;;;;;7.50;4.88;;;17.50;60.00;;;;;;5053478;28;20589;-61
2022/07/09 04:07:12;;;;;;;5.60;4.75;;;17.60;60.40;;;;;;5019923;28;20042;-61
2022/07/09 04:09:39;;;;;;;5.35;4.85;;;17.50;60.40;;;;;;5033301;28;20049;-61
2022/07/09 04:12:08;;;;;;;5.43;4.93;;;17.50;60.30;;;;;;5042371;28;20524;-61
2022/07/09 04:14:34;;;;;;;4.80;4.40;;;17.50;60.50;;;;;;5053976;28;20041;-61
2022/07/09 04:17:01;;;;;;;6.20;4.65;;;17.50;60.50;;;;;;5031468;28;20124;-61
2022/07/09 04:19:28;;;;;;;5.43;4.93;;;17.70;60.80;;;;;;5029363;28;20091;-60
2022/07/09 04:21:57;;;;;;;4.82;4.43;;;17.60;60.80;;;;;;5042520;28;20037;-61
2022/07/09 04:24:24;;;;;;;5.20;4.70;;;17.60;61.00;;;;;;5042986;28;20318;-61
2022/07/09 04:26:55;;;;;;;5.35;4.88;;;17.70;61.10;;;;;;5038276;28;20041;-61
2022/07/09 04:29:22;;;;;;;7.38;4.57;;;17.60;61.20;;;;;;5040989;28;20041;-61
2022/07/09 04:31:49;;;;;;;6.05;5.07;;;17.60;61.50;;;;;;5047775;28;20574;-60
2022/07/09 04:34:18;;;;;;;5.60;4.78;;;17.70;61.60;;;;;;5053085;28;20266;-61
2022/07/09 04:36:46;;;;;;;5.18;4.78;;;17.70;61.70;;;;;;5036321;28;20071;-61
2022/07/09 04:39:12;;;;;;;6.88;5.68;;;17.70;61.90;;;;;;5044026;28;20091;-61
2022/07/09 04:41:42;;;;;;;6.63;5.15;;;17.70;62.00;;;;;;5051371;28;20562;-61
2022/07/09 04:44:11;;;;;;;6.18;5.57;;;17.80;62.20;;;;;;5040168;28;20781;-61
2022/07/09 04:46:38;;;;;;;10.95;6.72;;;17.80;62.40;;;;;;5032152;28;20052;-61
2022/07/09 04:49:07;;;;;;;7.13;6.25;;;17.80;63.00;;;;;;5048147;22;20472;-54
2022/07/09 04:51:34;;;;;;;10.23;9.10;;;17.90;63.20;;;;;;5011806;28;20057;-54
2022/07/09 04:54:11;;;;;;;9.57;8.68;;;17.90;63.70;;;;;;5017153;28;20045;-55
2022/07/09 04:56:37;;;;;;;11.82;8.75;;;18.00;65.10;;;;;;5019555;28;20038;-56
2022/07/09 04:59:04;;;;;;;10.15;8.32;;;18.00;64.20;;;;;;5030747;28;20520;-55
2022/07/09 05:01:31;;;;;;;10.23;8.95;;;18.10;64.30;;;;;;5026714;28;20095;-54
2022/07/09 05:04:00;;;;;;;11.20;8.73;;;18.10;64.60;;;;;;5011390;28;20037;-56
2022/07/09 05:06:29;;;;;;;8.77;8.02;;;18.10;64.60;;;;;;5020859;28;20464;-52
2022/07/09 05:09:03;;;;;;;9.88;8.52;;;18.30;64.60;;;;;;5024469;28;20471;-53
2022/07/09 05:11:33;;;;;;;11.15;9.88;;;18.30;64.60;;;;;;5026467;28;20159;-53
2022/07/09 05:14:02;;;;;;;11.18;9.95;;;18.40;64.80;;;;;;5016455;28;20046;-54
2022/07/09 05:16:29;;;;;;;12.77;9.85;;;18.40;64.90;;;;;;5022509;28;20038;-55
2022/07/09 05:19:00;;;;;;;14.80;10.70;;;18.50;64.90;;;;;;5019459;28;20034;-52
2022/07/09 05:21:27;;;;;;;12.63;10.82;;;18.50;65.30;;;;;;5018106;28;20034;-54
2022/07/09 05:24:01;;;;;;;12.35;10.15;;;18.60;65.10;;;;;;5011266;28;20049;-59
2022/07/09 05:26:30;;;;;;;13.27;10.30;;;18.60;65.10;;;;;;5012724;28;20046;-54
2022/07/09 05:28:57;;;;;;;14.90;11.25;;;18.70;65.40;;;;;;5029033;28;20078;-52
2022/07/09 05:31:23;;;;;;;14.68;11.25;;;18.80;65.60;;;;;;5013727;28;20623;-60
2022/07/09 05:34:01;;;;;;;17.63;12.57;;;18.80;65.70;;;;;;5018317;28;20042;-55
2022/07/09 05:36:30;;;;;;;11.82;10.55;;;18.90;65.90;;;;;;5029839;28;20523;-58
2022/07/09 05:38:57;;;;;;;14.63;12.52;;;19.00;66.00;;;;;;5017862;28;20034;-58
2022/07/09 05:41:24;;;;;;;14.82;11.73;;;19.00;66.20;;;;;;5019713;28;20551;-54
2022/07/09 05:44:03;;;;;;;13.80;11.98;;;19.10;66.30;;;;;;5025759;28;20037;-54
2022/07/09 05:46:31;;;;;;;12.60;10.82;;;19.20;66.40;;;;;;5015910;28;20080;-55
2022/07/09 05:49:00;;;;;;;15.02;10.63;;;19.40;66.30;;;;;;5031066;28;20456;-57
2022/07/09 05:51:40;;;;;;;11.50;10.07;;;19.50;66.40;;;;;;5010295;28;20042;-55
2022/07/09 05:54:07;;;;;;;11.57;10.38;;;19.60;66.30;;;;;;5022179;28;20053;-55
2022/07/09 05:56:36;;;;;;;13.05;10.63;;;19.70;66.30;;;;;;5031034;28;20073;-54
2022/07/09 05:59:03;;;;;;;13.10;11.80;;;19.80;66.10;;;;;;5024108;28;20068;-57
2022/07/09 06:01:39;;;;;;;12.23;10.85;;;19.90;66.20;;;;;;5013321;28;20091;-53
2022/07/09 06:04:07;;;;;;;11.48;10.35;;;20.10;66.10;;;;;;5019639;28;20038;-55
2022/07/09 06:06:35;;;;;;;11.57;9.90;;;20.20;65.70;;;;;;5030951;28;20045;-58
2022/07/09 06:09:04;;;;;;;11.60;10.23;;;20.30;65.40;;;;;;5017127;28;20066;-55
2022/07/09 06:11:31;;;;;;;11.10;9.65;;;20.40;65.10;;;;;;5025684;28;20046;-56
2022/07/09 06:14:00;;;;;;;10.63;8.85;;;20.50;64.70;;;;;;5029196;28;20037;-58
2022/07/09 06:16:27;;;;;;;11.70;9.13;;;20.60;64.40;;;;;;5030469;28;20054;-57
2022/07/09 06:18:59;;;;;;;9.95;9.05;;;20.60;64.40;;;;;;5011382;28;20041;-56
2022/07/09 06:21:28;;;;;;;10.65;9.38;;;20.70;64.50;;;;;;5002409;28;20452;-59
2022/07/09 06:23:57;;;;;;;11.43;10.23;;;20.70;63.90;;;;;;5022047;28;20083;-58
2022/07/09 06:26:24;;;;;;;9.43;8.45;;;20.70;63.90;;;;;;5021716;28;20046;-57
2022/07/09 06:28:56;;;;;;;8.80;8.00;;;20.70;63.60;;;;;;5008908;28;20042;-57
2022/07/09 06:31:25;;;;;;;8.68;7.78;;;20.80;63.60;;;;;;5010170;28;20065;-59
2022/07/09 06:33:52;;;;;;;8.68;7.78;;;20.80;63.80;;;;;;5007665;28;20046;-59
2022/07/09 06:36:25;;;;;;;9.20;7.45;;;20.80;63.90;;;;;;5016659;28;20509;-57
2022/07/09 06:41:40;;;;;;;7.45;6.75;;;20.90;63.60;;;;;;5012411;28;20050;-60
2022/07/09 06:44:07;;;;;;;8.57;7.72;;;20.90;63.40;;;;;;5027822;28;20500;-57
2022/07/09 06:46:35;;;;;;;7.78;6.97;;;21.00;63.50;;;;;;5012483;28;20048;-57
2022/07/09 06:49:04;;;;;;;9.15;8.25;;;21.00;63.40;;;;;;5020332;28;20046;-58
2022/07/09 06:51:34;;;;;;;8.65;7.60;;;21.10;63.40;;;;;;5029029;28;20470;-59
2022/07/09 06:54:03;;;;;;;9.30;8.27;;;21.20;63.50;;;;;;5029180;28;20099;-58
2022/07/09 06:56:30;;;;;;;7.68;6.90;;;21.30;63.40;;;;;;5001425;28;20494;-59
2022/07/09 06:58:57;;;;;;;7.13;5.97;;;21.30;63.30;;;;;;4998484;28;20034;-59
2022/07/09 07:01:24;;;;;;;6.68;5.95;;;21.40;63.00;;;;;;5006589;28;20462;-59
2022/07/09 07:03:50;;;;;;;6.30;5.70;;;21.50;62.80;;;;;;5018942;28;20038;-60
2022/07/09 07:06:17;;;;;;;6.60;6.00;;;21.50;62.40;;;;;;5007042;28;20053;-58
2022/07/09 07:08:44;;;;;;;7.30;5.45;;;21.60;62.30;;;;;;5003272;28;20096;-60
2022/07/09 07:11:13;;;;;;;6.60;5.95;;;21.70;62.00;;;;;;5002824;28;20049;-55
2022/07/09 07:13:40;;;;;;;8.40;6.53;;;21.80;62.10;;;;;;5009016;28;20073;-56
2022/07/09 07:16:07;;;;;;;9.10;6.47;;;21.80;62.00;;;;;;5001945;28;20089;-57
2022/07/09 07:18:34;;;;;;;8.93;6.60;;;21.80;61.50;;;;;;5021150;28;20599;-58
2022/07/09 07:21:01;;;;;;;8.80;5.65;;;21.80;61.60;;;;;;5029293;28;20049;-58
2022/07/09 07:23:31;;;;;;;6.40;5.47;;;21.90;61.30;;;;;;5009445;28;20113;-58
2022/07/09 07:25:59;;;;;;;9.35;5.88;;;21.90;61.30;;;;;;5016970;28;20041;-55
2022/07/09 07:28:26;;;;;;;5.38;4.50;;;22.00;61.30;;;;;;5016959;28;20073;-59
2022/07/09 07:30:56;;;;;;;7.68;6.05;;;22.00;61.00;;;;;;5006024;28;20049;-57
2022/07/09 07:33:25;;;;;;;8.30;4.75;;;22.00;60.80;;;;;;5013644;28;20044;-60
2022/07/09 07:35:52;;;;;;;5.28;4.78;;;22.10;60.70;;;;;;5012698;28;20515;-60
2022/07/09 07:38:18;;;;;;;7.05;4.40;;;22.10;60.50;;;;;;5022207;28;20033;-60
2022/07/09 07:40:45;;;;;;;4.95;4.40;;;22.20;60.60;;;;;;5029902;28;20054;-57
2022/07/09 07:43:12;;;;;;;5.45;3.85;;;22.30;60.60;;;;;;5017570;28;20042;-57
2022/07/09 07:45:39;;;;;;;3.42;3.13;;;22.40;60.40;;;;;;5018425;28;20049;-57
2022/07/09 07:48:06;;;;;;;4.75;4.05;;;22.50;59.80;;;;;;5020659;28;20505;-57
2022/07/09 07:50:35;;;;;;;3.65;3.15;;;22.50;60.40;;;;;;5028388;28;20046;-60
2022/07/09 07:53:02;;;;;;;8.30;3.42;;;22.70;59.80;;;;;;5015209;28;20406;-56
2022/07/09 07:55:28;;;;;;;3.10;2.90;;;22.70;59.70;;;;;;5014950;28;20151;-55
2022/07/09 07:57:55;;;;;;;4.15;3.15;;;22.90;59.10;;;;;;5020855;28;20439;-61
2022/07/09 08:00:22;;;;;;;2.60;2.38;;;23.10;58.40;;;;;;5031337;28;20087;-56
2022/07/09 08:02:49;;;;;;;5.07;2.30;;;23.20;57.80;;;;;;5013666;28;20034;-59
2022/07/09 08:05:16;;;;;;;2.53;2.33;;;23.30;57.40;;;;;;5023924;28;20100;-59
2022/07/09 08:07:43;;;;;;;3.90;2.70;;;23.40;57.00;;;;;;5027671;28;20042;-57
2022/07/09 08:10:09;;;;;;;3.05;2.47;;;23.40;56.70;;;;;;5025134;28;20037;-58
2022/07/09 08:12:36;;;;;;;3.42;2.28;;;23.40;57.00;;;;;;5012829;28;20045;-61
2022/07/09 08:15:03;;;;;;;3.88;2.47;;;23.50;56.40;;;;;;5023154;28;20088;-59
2022/07/09 08:17:30;;;;;;;2.50;2.30;;;23.50;56.80;;;;;;5032672;28;20045;-56
2022/07/09 08:19:57;;;;;;;1.80;1.70;;;23.50;56.60;;;;;;5012974;28;20034;-61
2022/07/09 08:22:23;;;;;;;2.25;1.70;;;23.50;56.20;;;;;;5015323;28;20037;-58
2022/07/09 08:24:50;;;;;;;1.77;1.50;;;23.70;56.30;;;;;;5023451;28;20041;-59
2022/07/09 08:27:19;;;;;;;6.13;2.30;;;23.70;55.80;;;;;;5026881;28;20065;-61
2022/07/09 08:29:48;;;;;;;3.88;2.30;;;23.80;55.70;;;;;;5009579;28;20050;-59
2022/07/09 08:32:15;;;;;;;2.78;2.50;;;23.90;55.70;;;;;;5018302;28;20069;-60
2022/07/09 08:34:42;;;;;;;3.50;2.00;;;24.00;55.50;;;;;;5023262;28;20029;-56
2022/07/09 08:37:09;;;;;;;1.83;1.73;;;24.20;55.40;;;;;;5031479;28;20042;-58
2022/07/09 08:39:36;;;;;;;1.90;1.80;;;24.30;54.80;;;;;;5022053;28;20560;-57
2022/07/09 08:42:07;;;;;;;3.50;2.28;;;24.40;54.20;;;;;;5024482;28;20065;-60
2022/07/09 08:44:38;;;;;;;2.30;1.50;;;24.50;54.00;;;;;;5018001;28;20402;-60
2022/07/09 08:47:05;;;;;;;2.67;2.13;;;24.50;53.50;;;;;;5012542;28;20283;-56
2022/07/09 08:49:32;;;;;;;1.73;1.52;;;24.60;53.40;;;;;;5008572;28;20452;-57
2022/07/09 08:52:02;;;;;;;3.55;2.08;;;24.60;53.50;;;;;;5019373;28;20049;-59
2022/07/09 08:54:29;;;;;;;3.67;2.00;;;24.60;52.90;;;;;;5011599;28;20097;-60
2022/07/09 08:56:56;;;;;;;2.45;1.60;;;24.60;52.80;;;;;;5010779;28;20783;-60
2022/07/09 08:59:23;;;;;;;2.42;1.75;;;24.60;52.80;;;;;;5012507;28;20750;-59
2022/07/09 09:01:50;;;;;;;2.00;1.80;;;24.70;53.10;;;;;;5009581;28;20096;-61
2022/07/09 09:04:17;;;;;;;2.95;2.05;;;24.70;53.00;;;;;;5011178;28;20096;-61
2022/07/09 09:06:44;;;;;;;2.78;2.20;;;24.70;53.20;;;;;;5009782;28;20050;-57
2022/07/09 09:09:18;;;;;;;2.88;2.13;;;24.70;53.00;;;;;;5007008;28;20045;-56
2022/07/09 09:11:49;;;;;;;2.30;2.10;;;24.70;52.50;;;;;;5019859;28;20042;-58
2022/07/09 09:14:22;;;;;;;2.58;2.08;;;24.70;52.80;;;;;;5031313;28;20050;-58
2022/07/09 09:16:51;;;;;;;2.45;2.05;;;24.80;52.40;;;;;;5012779;28;20052;-59
2022/07/09 09:19:24;;;;;;;2.92;2.47;;;24.80;52.50;;;;;;5017135;28;20042;-57
2022/07/09 09:21:53;;;;;;;1.83;1.70;;;24.90;53.00;;;;;;5027375;28;20041;-60
2022/07/09 09:24:25;;;;;;;3.55;1.90;;;25.00;53.30;;;;;;5026641;28;20472;-57
2022/07/09 09:26:56;;;;;;;1.70;1.60;;;25.00;52.40;;;;;;5003754;28;20046;-60
2022/07/09 09:29:23;;;;;;;1.95;1.83;;;25.10;51.80;;;;;;5011247;28;20409;-57
2022/07/09 09:31:50;;;;;;;2.63;2.20;;;25.30;51.90;;;;;;5013816;28;20090;-60
2022/07/09 09:34:18;;;;;;;2.08;1.98;;;25.40;52.00;;;;;;5010602;28;20041;-58
2022/07/09 09:36:54;;;;;;;2.13;1.92;;;25.50;51.60;;;;;;5010430;28;20076;-57
2022/07/09 09:39:29;;;;;;;1.77;1.67;;;25.60;51.40;;;;;;5019328;28;20494;-58
2022/07/09 09:41:59;;;;;;;3.53;3.00;;;25.70;50.60;;;;;;5010805;28;20049;-58
2022/07/09 09:44:37;;;;;;;4.05;2.65;;;25.80;50.80;;;;;;5006890;28;20035;-62
2022/07/09 09:47:05;;;;;;;3.53;3.17;;;25.90;50.80;;;;;;5014214;28;20045;-59
2022/07/09 09:49:32;;;;;;;3.60;2.90;;;26.00;50.40;;;;;;5021424;28;20095;-56
2022/07/09 09:52:07;;;;;;;8.65;2.75;;;26.10;50.10;;;;;;5030592;28;20048;-59
2022/07/09 09:54:39;;;;;;;3.40;3.20;;;26.20;49.90;;;;;;5013779;28;20516;-59
2022/07/09 09:57:08;;;;;;;4.18;3.78;;;26.20;50.20;;;;;;5021111;28;20041;-59
2022/07/09 09:59:37;;;;;;;3.80;3.50;;;26.30;50.20;;;;;;5026778;28;20081;-58
2022/07/09 10:02:11;;;;;;;3.55;3.25;;;26.50;50.30;;;;;;5024196;28;20042;-59
2022/07/09 10:04:39;;;;;;;5.25;4.20;;;26.60;49.90;;;;;;5007282;28;20066;-60
2022/07/09 10:07:08;;;;;;;6.15;4.43;;;26.60;49.90;;;;;;5020042;28;20045;-59
2022/07/09 10:09:34;;;;;;;6.05;4.57;;;26.70;49.40;;;;;;5023790;28;20053;-59
2022/07/09 10:12:02;;;;;;;5.93;5.32;;;26.80;50.20;;;;;;5028423;28;20102;-60
2022/07/09 10:14:35;;;;;;;9.13;5.03;;;26.80;49.70;;;;;;5009130;28;20037;-60
2022/07/09 10:17:13;;;;;;;5.18;4.75;;;26.90;49.60;;;;;;5025336;28;20091;-57
2022/07/09 10:19:53;;;;;;;8.02;4.88;;;26.90;49.50;;;;;;5015092;28;20379;-58
2022/07/09 10:22:20;;;;;;;3.63;3.20;;;27.00;49.50;;;;;;5007923;28;20080;-60
2022/07/09 10:24:52;;;;;;;2.25;2.05;;;27.10;49.60;;;;;;5008560;28;20049;-61
2022/07/09 10:27:19;;;;;;;3.80;3.50;;;27.10;48.60;;;;;;5013334;28;20107;-57
2022/07/09 10:29:54;;;;;;;4.40;4.10;;;27.20;48.10;;;;;;5029409;28;20034;-60
2022/07/09 10:32:32;;;;;;;4.05;3.53;;;27.20;47.50;;;;;;5014754;28;20099;-60
2022/07/09 10:35:06;;;;;;;3.63;3.35;;;27.30;47.10;;;;;;5018917;28;20046;-57
2022/07/09 10:37:35;;;;;;;5.70;4.05;;;27.30;47.00;;;;;;5029482;28;20045;-60
2022/07/09 10:40:18;;;;;;;6.60;4.55;;;27.20;47.10;;;;;;5008867;28;20100;-58
2022/07/09 10:43:00;;;;;;;3.97;3.65;;;27.20;47.20;;;;;;5011052;28;20033;-60
2022/07/09 10:45:44;;;;;;;7.07;3.95;;;27.20;47.80;;;;;;5020994;28;20033;-60
2022/07/09 10:48:14;;;;;;;4.55;4.07;;;27.20;48.00;;;;;;5028958;28;20669;-59
2022/07/09 10:50:48;;;;;;;4.70;4.05;;;27.20;48.30;;;;;;5010276;28;20096;-58
2022/07/09 10:53:17;;;;;;;4.07;3.65;;;27.30;47.50;;;;;;5020555;28;20050;-59
2022/07/09 10:55:46;;;;;;;4.55;4.15;;;27.30;47.60;;;;;;5008843;28;20038;-59
2022/07/09 10:58:21;;;;;;;3.45;3.15;;;27.40;47.60;;;;;;5007582;28;20042;-62
2022/07/09 11:00:56;;;;;;;3.75;3.50;;;27.50;47.50;;;;;;5002915;28;20058;-60
2022/07/09 11:03:27;;;;;;;4.40;3.58;;;27.60;47.00;;;;;;5010111;28;20038;-58
2022/07/09 11:05:55;;;;;;;4.15;3.08;;;27.70;46.90;;;;;;5025623;28;20056;-61
2022/07/09 11:08:22;;;;;;;4.88;3.13;;;27.80;46.40;;;;;;5010767;28;20097;-57
2022/07/09 11:10:51;;;;;;;2.90;2.70;;;27.90;46.20;;;;;;5015756;28;20037;-58
2022/07/09 11:13:23;;;;;;;4.13;3.53;;;27.80;46.30;;;;;;5037698;23;20064;-59
2022/07/09 11:15:57;;;;;;;3.40;3.20;;;27.90;46.70;;;;;;5048778;28;20098;-59
2022/07/09 11:18:27;;;;;;;5.13;4.10;;;27.90;47.10;;;;;;5051331;28;20047;-60
2022/07/09 11:20:54;;;;;;;5.15;4.00;;;28.00;46.80;;;;;;5053775;28;20713;-59
2022/07/09 11:23:23;;;;;;;3.72;3.40;;;27.90;46.60;;;;;;5063307;28;20064;-60
2022/07/09 11:25:52;;;;;;;4.13;3.80;;;28.00;46.90;;;;;;5068949;28;20044;-59
2022/07/09 11:28:25;;;;;;;4.93;3.35;;;28.10;46.90;;;;;;5068790;28;20040;-60
2022/07/09 11:31:04;;;;;;;4.43;4.03;;;28.10;46.70;;;;;;5081635;28;20636;-59
2022/07/09 11:36:18;;;;;;;6.55;4.03;;;28.30;46.20;;;;;;5053013;28;20037;-60
2022/07/09 11:38:48;;;;;;;3.58;3.33;;;28.40;46.20;;;;;;5061892;28;20430;-60
2022/07/09 11:41:18;;;;;;;5.38;3.83;;;28.40;45.80;;;;;;5082565;28;20096;-58
2022/07/09 11:43:52;;;;;;;5.00;4.47;;;28.40;45.90;;;;;;5088964;28;20102;-59
2022/07/09 11:46:20;;;;;;;4.65;4.25;;;28.50;46.10;;;;;;5082741;28;20560;-59
2022/07/09 11:48:53;;;;;;;9.13;4.88;;;28.50;45.90;;;;;;5082978;28;20036;-59
2022/07/09 11:51:33;;;;;;;4.85;4.45;;;28.40;45.00;;;;;;5076965;28;20044;-59
2022/07/09 11:54:01;;;;;;;6.18;4.20;;;28.30;44.90;;;;;;5091980;28;20043;-58
2022/07/09 11:56:39;;;;;;;5.22;4.43;;;28.20;45.20;;;;;;5056314;28;20064;-59
2022/07/09 11:59:06;;;;;;;6.20;4.35;;;28.00;45.50;;;;;;5087194;28;20105;-59
2022/07/09 12:01:32;;;;;;;6.22;4.85;;;27.90;45.70;;;;;;5068600;28;20036;-59
2022/07/09 12:03:59;;;;;;;7.57;5.43;;;27.70;45.90;;;;;;5081211;28;20032;-61
2022/07/09 12:06:27;;;;;;;6.32;5.72;;;27.50;46.10;;;;;;5068113;28;20044;-61
2022/07/09 12:09:04;;;;;;;7.57;5.53;;;27.30;46.70;;;;;;5060398;28;20045;-61
2022/07/09 12:11:31;;;;;;;18.20;7.07;;;27.10;47.60;;;;;;5079280;28;20052;-61
2022/07/09 12:13:58;;;;;;;17.08;9.20;;;26.90;50.10;;;;;;5072383;28;20574;-60
2022/07/09 12:16:25;;;;;;;11.45;9.40;;;26.70;52.20;;;;;;5067451;28;20028;-59
2022/07/09 12:18:52;;;;;;;14.57;11.23;;;26.40;54.00;;;;;;5084877;28;20058;-60
2022/07/09 12:21:19;;;;;;;16.58;14.00;;;26.20;54.40;;;;;;5084177;28;20074;-61
2022/07/09 12:23:45;;;;;;;16.27;13.73;;;25.80;57.20;;;;;;5074780;28;20045;-61
2022/07/09 12:26:12;;;;;;;16.63;14.85;;;25.40;58.80;;;;;;5065225;28;20110;-61
2022/07/09 12:28:39;;;;;;;22.50;18.30;;;25.00;60.40;;;;;;5054754;28;20037;-61
2022/07/09 12:31:06;;;;;;;21.75;19.42;;;24.60;62.00;;;;;;5074294;28;20392;-61
2022/07/09 12:33:33;;;;;;;22.85;20.52;;;24.30;64.00;;;;;;5067941;28;20127;-60
2022/07/09 12:35:59;;;;;;;25.92;22.92;;;24.00;66.20;;;;;;5073761;28;20050;-59
2022/07/09 12:38:26;;;;;;;26.40;23.77;;;23.90;68.90;;;;;;5082874;28;20036;-60
2022/07/09 12:40:53;;;;;;;27.90;25.10;;;23.80;70.40;;;;;;5060204;28;20075;-59
2022/07/09 12:43:20;;;;;;;29.05;25.95;;;23.80;71.80;;;;;;5073325;28;20036;-60
2022/07/09 12:45:47;;;;;;;26.90;24.00;;;23.80;72.10;;;;;;5075012;28;20587;-59
2022/07/09 12:48:16;;;;;;;24.77;22.35;;;23.80;72.70;;;;;;5076029;28;20044;-59
2022/07/09 12:50:43;;;;;;;21.35;19.33;;;23.90;72.90;;;;;;5079658;28;20036;-59
2022/07/09 12:53:09;;;;;;;22.52;20.15;;;24.10;72.40;;;;;;5077606;28;20098;-59
2022/07/09 12:55:38;;;;;;;21.40;19.17;;;24.20;71.90;;;;;;5067982;28;20498;-60
2022/07/09 12:58:25;;;;;;;17.52;14.27;;;24.40;72.30;;;;;;5069807;28;20043;-59